sensor_id;sensor_type;location;lat;lon;timestamp;pressure;altitude;pressure_sealevel;temperature;humidity
72558;BME280;60583;50.094;8.748;2022-11-15T00:01:18;100207.03;;;10.00;88.16
72558;BME280;60583;50.094;8.748;2022-11-15T00:03:44;100209.06;;;9.92;88.41
72558;BME280;60583;50.094;8.748;2022-11-15T00:06:09;100209.06;;;9.92;88.72
72558;BME280;60583;50.094;8.748;2022-11-15T00:08:35;100209.44;;;9.89;88.43
72558;BME280;60583;50.094;8.748;2022-11-15T00:11:02;100207.38;;;9.84;89.15
72558;BME280;60583;50.094;8.748;2022-11-15T00:13:29;100207.50;;;9.70;89.33
72558;BME280;60583;50.094;8.748;2022-11-15T00:15:58;100211.56;;;9.59;89.17
72558;BME280;60583;50.094;8.748;2022-11-15T00:18:25;100209.06;;;9.57;89.74
72558;BME280;60583;50.094;8.748;2022-11-15T00:20:50;100215.00;;;9.53;89.92
72558;BME280;60583;50.094;8.748;2022-11-15T00:23:16;100213.16;;;9.53;89.63
72558;BME280;60583;50.094;8.748;2022-11-15T00:25:41;100208.81;;;9.46;90.45
72558;BME280;60583;50.094;8.748;2022-11-15T00:28:07;100194.41;;;9.34;90.19
72558;BME280;60583;50.094;8.748;2022-11-15T00:30:33;100212.47;;;9.38;90.49
72558;BME280;60583;50.094;8.748;2022-11-15T00:33:04;100209.97;;;9.37;90.43
72558;BME280;60583;50.094;8.748;2022-11-15T00:35:32;100204.66;;;9.37;90.88
72558;BME280;60583;50.094;8.748;2022-11-15T00:37:58;100209.94;;;9.30;90.68
72558;BME280;60583;50.094;8.748;2022-11-15T00:40:24;100204.81;;;9.29;91.07
72558;BME280;60583;50.094;8.748;2022-11-15T00:42:49;100201.28;;;9.22;90.86
72558;BME280;60583;50.094;8.748;2022-11-15T00:45:15;100202.72;;;9.24;90.96
72558;BME280;60583;50.094;8.748;2022-11-15T00:47:44;100197.81;;;9.21;90.60
72558;BME280;60583;50.094;8.748;2022-11-15T00:50:10;100203.69;;;9.17;90.70
72558;BME280;60583;50.094;8.748;2022-11-15T00:52:35;100198.44;;;9.23;91.24
72558;BME280;60583;50.094;8.748;2022-11-15T00:55:00;100207.81;;;9.19;91.20
72558;BME280;60583;50.094;8.748;2022-11-15T00:57:26;100204.97;;;9.21;91.32
72558;BME280;60583;50.094;8.748;2022-11-15T00:59:51;100196.00;;;9.28;90.84
72558;BME280;60583;50.094;8.748;2022-11-15T01:02:16;100190.25;;;9.25;91.69
72558;BME280;60583;50.094;8.748;2022-11-15T01:04:42;100188.63;;;9.24;91.39
72558;BME280;60583;50.094;8.748;2022-11-15T01:07:07;100180.41;;;9.19;91.31
72558;BME280;60583;50.094;8.748;2022-11-15T01:09:33;100175.47;;;9.16;91.79
72558;BME280;60583;50.094;8.748;2022-11-15T01:11:58;100176.28;;;9.16;91.33
72558;BME280;60583;50.094;8.748;2022-11-15T01:14:23;100167.50;;;9.16;91.29
72558;BME280;60583;50.094;8.748;2022-11-15T01:16:49;100170.97;;;9.16;91.30
72558;BME280;60583;50.094;8.748;2022-11-15T01:19:14;100174.84;;;9.14;91.67
72558;BME280;60583;50.094;8.748;2022-11-15T01:21:39;100172.56;;;9.11;92.19
72558;BME280;60583;50.094;8.748;2022-11-15T01:24:05;100170.53;;;9.13;92.18
72558;BME280;60583;50.094;8.748;2022-11-15T01:26:30;100173.81;;;9.15;92.22
72558;BME280;60583;50.094;8.748;2022-11-15T01:28:56;100177.97;;;9.24;91.40
72558;BME280;60583;50.094;8.748;2022-11-15T01:31:21;100178.00;;;9.30;90.93
72558;BME280;60583;50.094;8.748;2022-11-15T01:33:48;100174.00;;;9.41;90.37
72558;BME280;60583;50.094;8.748;2022-11-15T01:36:16;100172.34;;;9.40;90.29
72558;BME280;60583;50.094;8.748;2022-11-15T01:38:43;100167.25;;;9.45;90.23
72558;BME280;60583;50.094;8.748;2022-11-15T01:41:16;100166.66;;;9.49;89.60
72558;BME280;60583;50.094;8.748;2022-11-15T01:43:42;100161.75;;;9.53;89.52
72558;BME280;60583;50.094;8.748;2022-11-15T01:46:17;100168.31;;;9.57;89.33
72558;BME280;60583;50.094;8.748;2022-11-15T01:48:46;100157.69;;;9.57;89.22
72558;BME280;60583;50.094;8.748;2022-11-15T01:51:16;100156.28;;;9.61;88.98
72558;BME280;60583;50.094;8.748;2022-11-15T01:53:44;100146.25;;;9.63;88.65
72558;BME280;60583;50.094;8.748;2022-11-15T01:56:14;100145.41;;;9.56;89.00
72558;BME280;60583;50.094;8.748;2022-11-15T01:58:41;100143.13;;;9.53;90.04
72558;BME280;60583;50.094;8.748;2022-11-15T02:01:07;100145.19;;;9.51;89.81
72558;BME280;60583;50.094;8.748;2022-11-15T02:03:39;100145.03;;;9.59;88.97
72558;BME280;60583;50.094;8.748;2022-11-15T02:06:06;100142.16;;;9.60;88.65
72558;BME280;60583;50.094;8.748;2022-11-15T02:08:32;100149.97;;;9.69;88.48
72558;BME280;60583;50.094;8.748;2022-11-15T02:10:58;100145.47;;;9.69;88.81
72558;BME280;60583;50.094;8.748;2022-11-15T02:13:23;100141.53;;;9.65;89.26
72558;BME280;60583;50.094;8.748;2022-11-15T02:16:30;100127.44;;;9.71;88.35
72558;BME280;60583;50.094;8.748;2022-11-15T02:25:39;100129.34;;;9.84;87.80
72558;BME280;60583;50.094;8.748;2022-11-15T02:28:43;100116.84;;;9.84;88.62
72558;BME280;60583;50.094;8.748;2022-11-15T02:33:35;100113.97;;;9.79;88.63
72558;BME280;60583;50.094;8.748;2022-11-15T02:36:49;100111.91;;;9.81;89.25
72558;BME280;60583;50.094;8.748;2022-11-15T02:39:13;100107.81;;;9.85;88.04
72558;BME280;60583;50.094;8.748;2022-11-15T02:41:47;100096.16;;;9.86;87.14
72558;BME280;60583;50.094;8.748;2022-11-15T02:44:30;100095.34;;;9.92;87.10
72558;BME280;60583;50.094;8.748;2022-11-15T02:47:00;100092.69;;;9.99;86.84
72558;BME280;60583;50.094;8.748;2022-11-15T02:49:45;100088.00;;;10.01;86.80
72558;BME280;60583;50.094;8.748;2022-11-15T02:52:19;100097.63;;;10.02;86.70
72558;BME280;60583;50.094;8.748;2022-11-15T02:54:56;100090.44;;;10.02;86.44
72558;BME280;60583;50.094;8.748;2022-11-15T02:57:39;100093.09;;;10.02;87.01
72558;BME280;60583;50.094;8.748;2022-11-15T03:00:08;100091.25;;;9.96;87.67
72558;BME280;60583;50.094;8.748;2022-11-15T03:03:06;100091.44;;;9.82;88.58
72558;BME280;60583;50.094;8.748;2022-11-15T03:11:13;100088.91;;;9.54;90.41
72558;BME280;60583;50.094;8.748;2022-11-15T03:13:53;100090.69;;;9.47;90.59
72558;BME280;60583;50.094;8.748;2022-11-15T03:16:33;100090.06;;;9.38;90.81
72558;BME280;60583;50.094;8.748;2022-11-15T03:19:06;100081.41;;;9.30;91.09
72558;BME280;60583;50.094;8.748;2022-11-15T03:21:37;100076.88;;;9.24;91.43
72558;BME280;60583;50.094;8.748;2022-11-15T03:24:06;100071.97;;;9.21;91.71
72558;BME280;60583;50.094;8.748;2022-11-15T03:26:34;100060.47;;;9.14;92.15
72558;BME280;60583;50.094;8.748;2022-11-15T03:29:11;100080.88;;;9.07;91.97
72558;BME280;60583;50.094;8.748;2022-11-15T03:31:42;100086.63;;;9.10;91.93
72558;BME280;60583;50.094;8.748;2022-11-15T03:35:01;100084.19;;;9.09;92.08
72558;BME280;60583;50.094;8.748;2022-11-15T03:37:01;100090.72;;;9.06;91.96
72558;BME280;60583;50.094;8.748;2022-11-15T03:39:27;100090.88;;;9.05;92.26
72558;BME280;60583;50.094;8.748;2022-11-15T03:44:48;100081.19;;;8.90;91.81
72558;BME280;60583;50.094;8.748;2022-11-15T03:47:21;100082.03;;;8.91;92.76
72558;BME280;60583;50.094;8.748;2022-11-15T03:49:53;100096.53;;;8.88;92.52
72558;BME280;60583;50.094;8.748;2022-11-15T03:52:21;100091.84;;;8.90;92.55
72558;BME280;60583;50.094;8.748;2022-11-15T03:54:53;100079.94;;;8.86;92.38
72558;BME280;60583;50.094;8.748;2022-11-15T03:57:19;100080.53;;;8.82;92.64
72558;BME280;60583;50.094;8.748;2022-11-15T03:59:44;100081.56;;;8.81;92.89
72558;BME280;60583;50.094;8.748;2022-11-15T04:02:10;100084.78;;;8.76;92.26
72558;BME280;60583;50.094;8.748;2022-11-15T04:04:35;100089.09;;;8.77;92.74
72558;BME280;60583;50.094;8.748;2022-11-15T04:07:00;100088.09;;;8.78;92.66
72558;BME280;60583;50.094;8.748;2022-11-15T04:09:26;100092.97;;;8.81;92.72
72558;BME280;60583;50.094;8.748;2022-11-15T04:11:51;100091.38;;;8.80;92.43
72558;BME280;60583;50.094;8.748;2022-11-15T04:14:16;100091.38;;;8.80;92.89
72558;BME280;60583;50.094;8.748;2022-11-15T04:16:42;100099.13;;;8.82;92.30
72558;BME280;60583;50.094;8.748;2022-11-15T04:19:07;100093.56;;;8.77;92.86
72558;BME280;60583;50.094;8.748;2022-11-15T04:21:51;100095.03;;;8.79;93.25
72558;BME280;60583;50.094;8.748;2022-11-15T04:24:35;100097.28;;;8.82;92.88
72558;BME280;60583;50.094;8.748;2022-11-15T04:27:00;100099.13;;;8.82;92.75
72558;BME280;60583;50.094;8.748;2022-11-15T04:29:26;100088.56;;;8.88;92.74
72558;BME280;60583;50.094;8.748;2022-11-15T04:32:05;100089.59;;;8.94;93.34
72558;BME280;60583;50.094;8.748;2022-11-15T04:34:31;100082.81;;;8.91;92.90
72558;BME280;60583;50.094;8.748;2022-11-15T04:36:57;100080.41;;;8.96;92.97
72558;BME280;60583;50.094;8.748;2022-11-15T04:39:39;100076.75;;;8.97;93.03
72558;BME280;60583;50.094;8.748;2022-11-15T04:42:05;100078.78;;;8.95;93.16
72558;BME280;60583;50.094;8.748;2022-11-15T04:44:30;100069.53;;;8.91;93.03
72558;BME280;60583;50.094;8.748;2022-11-15T04:46:56;100073.84;;;8.92;93.13
72558;BME280;60583;50.094;8.748;2022-11-15T04:49:21;100071.81;;;8.94;92.62
72558;BME280;60583;50.094;8.748;2022-11-15T04:51:47;100067.09;;;8.96;93.23
72558;BME280;60583;50.094;8.748;2022-11-15T04:54:12;100062.38;;;8.92;92.95
72558;BME280;60583;50.094;8.748;2022-11-15T04:56:37;100067.34;;;9.02;92.97
72558;BME280;60583;50.094;8.748;2022-11-15T04:59:03;100061.63;;;9.05;92.43
72558;BME280;60583;50.094;8.748;2022-11-15T05:01:28;100061.25;;;9.08;92.24
72558;BME280;60583;50.094;8.748;2022-11-15T05:03:54;100047.75;;;9.09;92.20
72558;BME280;60583;50.094;8.748;2022-11-15T05:06:37;100061.25;;;9.08;92.67
72558;BME280;60583;50.094;8.748;2022-11-15T05:09:03;100055.94;;;9.08;92.62
72558;BME280;60583;50.094;8.748;2022-11-15T05:11:28;100056.53;;;9.10;92.90
72558;BME280;60583;50.094;8.748;2022-11-15T05:13:54;100049.19;;;9.12;92.88
72558;BME280;60583;50.094;8.748;2022-11-15T05:16:19;100056.38;;;9.18;92.86
72558;BME280;60583;50.094;8.748;2022-11-15T05:18:45;100063.75;;;9.16;93.05
72558;BME280;60583;50.094;8.748;2022-11-15T05:21:12;100065.78;;;9.14;92.98
72558;BME280;60583;50.094;8.748;2022-11-15T05:23:38;100064.53;;;9.10;92.68
72558;BME280;60583;50.094;8.748;2022-11-15T05:26:05;100054.94;;;9.15;92.34
72558;BME280;60583;50.094;8.748;2022-11-15T05:28:32;100054.31;;;9.13;92.33
72558;BME280;60583;50.094;8.748;2022-11-15T05:31:13;100055.78;;;9.16;91.78
72558;BME280;60583;50.094;8.748;2022-11-15T05:33:40;100048.78;;;9.08;92.37
72558;BME280;60583;50.094;8.748;2022-11-15T05:38:41;100047.16;;;9.14;92.34
72558;BME280;60583;50.094;8.748;2022-11-15T05:41:06;100036.56;;;9.20;91.78
72558;BME280;60583;50.094;8.748;2022-11-15T05:43:33;100034.91;;;9.19;91.89
72558;BME280;60583;50.094;8.748;2022-11-15T05:46:02;100040.88;;;9.21;92.11
72558;BME280;60583;50.094;8.748;2022-11-15T05:48:28;100041.88;;;9.20;91.96
72558;BME280;60583;50.094;8.748;2022-11-15T05:50:54;100031.03;;;9.22;92.21
72558;BME280;60583;50.094;8.748;2022-11-15T05:53:21;100027.78;;;9.26;91.71
72558;BME280;60583;50.094;8.748;2022-11-15T05:55:48;100031.06;;;9.28;91.87
72558;BME280;60583;50.094;8.748;2022-11-15T05:58:14;100030.03;;;9.29;91.72
72558;BME280;60583;50.094;8.748;2022-11-15T06:00:40;100030.44;;;9.26;91.97
72558;BME280;60583;50.094;8.748;2022-11-15T06:03:08;100019.59;;;9.28;91.58
72558;BME280;60583;50.094;8.748;2022-11-15T06:05:33;100027.81;;;9.33;91.05
72558;BME280;60583;50.094;8.748;2022-11-15T06:07:59;100025.97;;;9.33;90.87
72558;BME280;60583;50.094;8.748;2022-11-15T06:10:25;100028.25;;;9.36;90.92
72558;BME280;60583;50.094;8.748;2022-11-15T06:13:01;100034.78;;;9.34;91.22
72558;BME280;60583;50.094;8.748;2022-11-15T06:15:27;100028.81;;;9.32;91.37
72558;BME280;60583;50.094;8.748;2022-11-15T06:17:56;100025.97;;;9.33;90.89
72558;BME280;60583;50.094;8.748;2022-11-15T06:20:23;100029.84;;;9.37;91.17
72558;BME280;60583;50.094;8.748;2022-11-15T06:22:49;100030.06;;;9.36;90.49
72558;BME280;60583;50.094;8.748;2022-11-15T06:25:14;100031.50;;;9.38;90.34
72558;BME280;60583;50.094;8.748;2022-11-15T06:27:40;100023.75;;;9.43;90.25
72558;BME280;60583;50.094;8.748;2022-11-15T06:30:05;100023.53;;;9.45;90.54
72558;BME280;60583;50.094;8.748;2022-11-15T06:32:31;100031.53;;;9.45;90.73
72558;BME280;60583;50.094;8.748;2022-11-15T06:34:56;100037.88;;;9.44;90.75
72558;BME280;60583;50.094;8.748;2022-11-15T06:37:22;100036.84;;;9.45;90.63
72558;BME280;60583;50.094;8.748;2022-11-15T06:39:47;100035.63;;;9.41;91.35
72558;BME280;60583;50.094;8.748;2022-11-15T06:42:13;100038.88;;;9.43;91.00
72558;BME280;60583;50.094;8.748;2022-11-15T06:44:38;100050.97;;;9.45;90.44
72558;BME280;60583;50.094;8.748;2022-11-15T06:47:03;100044.66;;;9.46;90.31
72558;BME280;60583;50.094;8.748;2022-11-15T06:49:29;100054.69;;;9.51;90.24
72558;BME280;60583;50.094;8.748;2022-11-15T06:51:54;100048.09;;;9.47;90.23
72558;BME280;60583;50.094;8.748;2022-11-15T06:54:19;100038.91;;;9.49;90.07
72558;BME280;60583;50.094;8.748;2022-11-15T06:56:46;100040.56;;;9.57;90.25
72558;BME280;60583;50.094;8.748;2022-11-15T06:59:11;100047.13;;;9.61;90.24
72558;BME280;60583;50.094;8.748;2022-11-15T07:01:36;100040.78;;;9.62;90.36
72558;BME280;60583;50.094;8.748;2022-11-15T07:04:02;100033.22;;;9.66;89.93
72558;BME280;60583;50.094;8.748;2022-11-15T07:06:27;100037.09;;;9.63;90.89
72558;BME280;60583;50.094;8.748;2022-11-15T07:08:52;100033.44;;;9.71;90.51
72558;BME280;60583;50.094;8.748;2022-11-15T07:11:18;100039.59;;;9.71;90.91
72558;BME280;60583;50.094;8.748;2022-11-15T07:13:43;100027.09;;;9.72;90.41
72558;BME280;60583;50.094;8.748;2022-11-15T07:16:09;100048.81;;;9.75;91.32
72558;BME280;60583;50.094;8.748;2022-11-15T07:18:37;100048.63;;;9.83;91.03
72558;BME280;60583;50.094;8.748;2022-11-15T07:21:04;100061.13;;;9.89;90.13
72558;BME280;60583;50.094;8.748;2022-11-15T07:23:29;100061.13;;;9.89;90.43
72558;BME280;60583;50.094;8.748;2022-11-15T07:25:58;100051.91;;;9.85;90.56
72558;BME280;60583;50.094;8.748;2022-11-15T07:28:27;100060.94;;;9.97;89.78
72558;BME280;60583;50.094;8.748;2022-11-15T07:30:53;100060.75;;;9.99;89.85
72558;BME280;60583;50.094;8.748;2022-11-15T07:33:18;100053.78;;;10.11;89.58
72558;BME280;60583;50.094;8.748;2022-11-15T07:35:44;100055.47;;;10.32;88.92
72558;BME280;60583;50.094;8.748;2022-11-15T07:38:13;100059.53;;;10.47;87.53
72558;BME280;60583;50.094;8.748;2022-11-15T07:40:40;100058.72;;;10.60;87.41
72558;BME280;60583;50.094;8.748;2022-11-15T07:43:07;100055.22;;;10.72;87.53
72558;BME280;60583;50.094;8.748;2022-11-15T07:45:32;100043.50;;;10.80;86.19
72558;BME280;60583;50.094;8.748;2022-11-15T07:48:01;100044.75;;;10.84;85.14
72558;BME280;60583;50.094;8.748;2022-11-15T07:50:27;100046.38;;;10.85;85.78
72558;BME280;60583;50.094;8.748;2022-11-15T07:52:56;100040.81;;;10.93;84.55
72558;BME280;60583;50.094;8.748;2022-11-15T07:55:25;100038.97;;;10.94;84.31
72558;BME280;60583;50.094;8.748;2022-11-15T07:57:52;100043.91;;;10.90;84.19
72558;BME280;60583;50.094;8.748;2022-11-15T08:00:18;100038.56;;;10.97;84.01
72558;BME280;60583;50.094;8.748;2022-11-15T08:02:43;100038.16;;;10.93;83.99
72558;BME280;60583;50.094;8.748;2022-11-15T08:05:08;100044.28;;;11.00;83.68
72558;BME280;60583;50.094;8.748;2022-11-15T08:07:34;100037.94;;;11.01;83.26
72558;BME280;60583;50.094;8.748;2022-11-15T08:10:00;100039.59;;;11.02;82.98
72558;BME280;60583;50.094;8.748;2022-11-15T08:12:29;100038.34;;;11.05;83.31
72558;BME280;60583;50.094;8.748;2022-11-15T08:14:55;100038.13;;;11.06;82.58
72558;BME280;60583;50.094;8.748;2022-11-15T08:17:24;100038.34;;;11.05;82.88
72558;BME280;60583;50.094;8.748;2022-11-15T08:19:50;100042.63;;;11.12;82.29
72558;BME280;60583;50.094;8.748;2022-11-15T08:22:16;100039.69;;;11.20;82.52
72558;BME280;60583;50.094;8.748;2022-11-15T08:24:42;100045.66;;;11.22;83.48
72558;BME280;60583;50.094;8.748;2022-11-15T08:27:08;100039.50;;;11.15;83.57
72558;BME280;60583;50.094;8.748;2022-11-15T08:29:43;100044.63;;;11.23;83.90
72558;BME280;60583;50.094;8.748;2022-11-15T08:32:09;100046.69;;;11.21;83.77
72558;BME280;60583;50.094;8.748;2022-11-15T08:34:36;100045.44;;;11.24;83.03
72558;BME280;60583;50.094;8.748;2022-11-15T08:37:02;100041.31;;;11.28;82.43
72558;BME280;60583;50.094;8.748;2022-11-15T08:39:27;100045.03;;;11.20;82.00
72558;BME280;60583;50.094;8.748;2022-11-15T08:41:53;100047.91;;;11.25;82.11
72558;BME280;60583;50.094;8.748;2022-11-15T08:44:19;100048.94;;;11.24;81.85
72558;BME280;60583;50.094;8.748;2022-11-15T08:46:47;100042.75;;;11.30;82.47
72558;BME280;60583;50.094;8.748;2022-11-15T08:49:13;100043.78;;;11.29;81.88
72558;BME280;60583;50.094;8.748;2022-11-15T08:51:38;100038.41;;;11.36;81.68
72558;BME280;60583;50.094;8.748;2022-11-15T08:54:04;100031.81;;;11.38;81.69
72558;BME280;60583;50.094;8.748;2022-11-15T08:56:30;100031.63;;;11.40;80.96
72558;BME280;60583;50.094;8.748;2022-11-15T08:58:55;100023.34;;;11.48;80.08
72558;BME280;60583;50.094;8.748;2022-11-15T09:01:21;100024.59;;;11.52;81.56
72558;BME280;60583;50.094;8.748;2022-11-15T09:03:46;100039.56;;;11.53;80.15
72558;BME280;60583;50.094;8.748;2022-11-15T09:06:13;100031.13;;;11.56;80.41
72558;BME280;60583;50.094;8.748;2022-11-15T09:08:39;100037.06;;;11.65;80.61
72558;BME280;60583;50.094;8.748;2022-11-15T09:11:05;100030.88;;;11.71;80.48
72558;BME280;60583;50.094;8.748;2022-11-15T09:13:32;100039.69;;;11.78;79.74
72558;BME280;60583;50.094;8.748;2022-11-15T09:15:59;100031.38;;;11.86;80.19
72558;BME280;60583;50.094;8.748;2022-11-15T09:18:25;100025.31;;;12.03;79.44
72558;BME280;60583;50.094;8.748;2022-11-15T09:20:50;100021.94;;;12.14;78.68
72558;BME280;60583;50.094;8.748;2022-11-15T09:23:16;100026.47;;;12.14;78.11
72558;BME280;60583;50.094;8.748;2022-11-15T09:25:41;100018.09;;;12.10;79.41
72558;BME280;60583;50.094;8.748;2022-11-15T09:28:07;100023.09;;;12.25;78.22
72558;BME280;60583;50.094;8.748;2022-11-15T09:30:33;100013.72;;;12.41;78.09
72558;BME280;60583;50.094;8.748;2022-11-15T09:32:58;100016.34;;;12.65;76.97
72558;BME280;60583;50.094;8.748;2022-11-15T09:35:24;100025.44;;;12.82;76.55
72558;BME280;60583;50.094;8.748;2022-11-15T09:37:49;100016.44;;;12.95;76.23
72558;BME280;60583;50.094;8.748;2022-11-15T09:40:16;100025.75;;;12.93;76.45
72558;BME280;60583;50.094;8.748;2022-11-15T09:42:55;100018.38;;;12.88;76.43
72558;BME280;60583;50.094;8.748;2022-11-15T09:45:34;100018.75;;;12.73;77.34
72558;BME280;60583;50.094;8.748;2022-11-15T09:48:56;100011.59;;;12.67;77.22
72558;BME280;60583;50.094;8.748;2022-11-15T09:51:04;100009.78;;;12.61;77.93
72558;BME280;60583;50.094;8.748;2022-11-15T09:53:42;100009.50;;;12.69;78.18
72558;BME280;60583;50.094;8.748;2022-11-15T09:56:32;100004.91;;;12.76;77.18
72558;BME280;60583;50.094;8.748;2022-11-15T09:59:02;100006.47;;;13.02;76.25
72558;BME280;60583;50.094;8.748;2022-11-15T10:04:25;100001.25;;;13.73;73.81
72558;BME280;60583;50.094;8.748;2022-11-15T10:07:00;99990.91;;;13.77;73.24
72558;BME280;60583;50.094;8.748;2022-11-15T10:09:38;99996.22;;;14.06;72.34
72558;BME280;60583;50.094;8.748;2022-11-15T10:12:08;99987.41;;;14.41;70.93
72558;BME280;60583;50.094;8.748;2022-11-15T10:14:36;99984.53;;;15.05;69.43
72558;BME280;60583;50.094;8.748;2022-11-15T10:22:46;99966.53;;;14.54;70.90
72558;BME280;60583;50.094;8.748;2022-11-15T10:25:14;99957.31;;;14.62;71.29
72558;BME280;60583;50.094;8.748;2022-11-15T10:27:41;99956.25;;;14.63;70.60
72558;BME280;60583;50.094;8.748;2022-11-15T10:30:16;99947.19;;;14.52;70.91
72558;BME280;60583;50.094;8.748;2022-11-15T10:32:44;99949.72;;;14.36;71.05
72558;BME280;60583;50.094;8.748;2022-11-15T10:35:29;99948.91;;;14.12;71.92
72558;BME280;60583;50.094;8.748;2022-11-15T10:38:09;99961.22;;;14.01;72.56
72558;BME280;60583;50.094;8.748;2022-11-15T10:40:36;99958.44;;;13.96;73.22
72558;BME280;60583;50.094;8.748;2022-11-15T10:43:14;99947.66;;;13.73;73.99
72558;BME280;60583;50.094;8.748;2022-11-15T10:45:40;99937.69;;;13.92;73.27
72558;BME280;60583;50.094;8.748;2022-11-15T10:48:24;99949.38;;;14.44;72.58
72558;BME280;60583;50.094;8.748;2022-11-15T10:50:51;99949.03;;;14.52;71.52
72558;BME280;60583;50.094;8.748;2022-11-15T10:53:28;99942.16;;;14.44;72.17
72558;BME280;60583;50.094;8.748;2022-11-15T10:55:59;99947.28;;;14.34;72.08
72558;BME280;60583;50.094;8.748;2022-11-15T10:58:41;99942.72;;;14.12;72.89
72558;BME280;60583;50.094;8.748;2022-11-15T11:01:15;99936.25;;;13.78;74.49
72558;BME280;60583;50.094;8.748;2022-11-15T11:03:43;99931.13;;;13.76;74.60
72558;BME280;60583;50.094;8.748;2022-11-15T11:06:12;99914.91;;;13.71;75.07
72558;BME280;60583;50.094;8.748;2022-11-15T11:08:38;99903.97;;;13.73;74.97
72558;BME280;60583;50.094;8.748;2022-11-15T11:11:04;99906.19;;;13.64;75.23
72558;BME280;60583;50.094;8.748;2022-11-15T11:16:14;99898.25;;;13.69;74.70
72558;BME280;60583;50.094;8.748;2022-11-15T11:29:57;99888.75;;;14.31;72.61
72558;BME280;60583;50.094;8.748;2022-11-15T11:32:54;99881.13;;;14.28;72.47
72558;BME280;60583;50.094;8.748;2022-11-15T11:35:30;99875.22;;;14.15;72.94
72558;BME280;60583;50.094;8.748;2022-11-15T11:38:02;99874.50;;;14.42;72.32
72558;BME280;60583;50.094;8.748;2022-11-15T11:46:04;99867.13;;;14.89;70.76
72558;BME280;60583;50.094;8.748;2022-11-15T11:48:41;99855.47;;;14.84;70.86
72558;BME280;60583;50.094;8.748;2022-11-15T11:51:20;99851.78;;;14.73;71.54
72558;BME280;60583;50.094;8.748;2022-11-15T11:53:58;99851.09;;;14.66;71.99
72558;BME280;60583;50.094;8.748;2022-11-15T11:56:27;99857.22;;;14.50;72.39
72558;BME280;60583;50.094;8.748;2022-11-15T11:58:55;99852.94;;;14.37;72.80
72558;BME280;60583;50.094;8.748;2022-11-15T12:01:36;99850.00;;;14.16;73.67
72558;BME280;60583;50.094;8.748;2022-11-15T12:04:11;99841.16;;;14.03;74.51
72558;BME280;60583;50.094;8.748;2022-11-15T12:06:57;99836.72;;;13.97;74.75
72558;BME280;60583;50.094;8.748;2022-11-15T12:09:35;99838.47;;;14.15;74.18
72558;BME280;60583;50.094;8.748;2022-11-15T12:12:18;99832.41;;;14.08;74.84
72558;BME280;60583;50.094;8.748;2022-11-15T12:14:53;99828.19;;;14.35;73.91
72558;BME280;60583;50.094;8.748;2022-11-15T12:17:24;99828.19;;;14.47;73.85
72558;BME280;60583;50.094;8.748;2022-11-15T12:19:52;99825.13;;;14.55;73.33
72558;BME280;60583;50.094;8.748;2022-11-15T12:22:40;99819.94;;;14.37;73.85
72558;BME280;60583;50.094;8.748;2022-11-15T12:25:21;99815.38;;;14.26;74.26
72558;BME280;60583;50.094;8.748;2022-11-15T12:30:39;99811.44;;;14.17;74.97
72558;BME280;60583;50.094;8.748;2022-11-15T12:33:36;99794.28;;;14.18;75.11
72558;BME280;60583;50.094;8.748;2022-11-15T12:36:05;99792.97;;;14.20;75.18
72558;BME280;60583;50.094;8.748;2022-11-15T12:38:59;99784.72;;;14.22;74.92
72558;BME280;60583;50.094;8.748;2022-11-15T12:41:27;99782.59;;;14.24;74.56
72558;BME280;60583;50.094;8.748;2022-11-15T12:43:54;99798.69;;;14.24;75.28
72558;BME280;60583;50.094;8.748;2022-11-15T12:59:51;99782.53;;;14.07;76.36
72558;BME280;60583;50.094;8.748;2022-11-15T13:02:28;99777.06;;;14.02;76.72
72558;BME280;60583;50.094;8.748;2022-11-15T13:05:24;99777.28;;;14.00;76.49
72558;BME280;60583;50.094;8.748;2022-11-15T13:17:45;99755.50;;;13.97;77.63
72558;BME280;60583;50.094;8.748;2022-11-15T13:22:46;99764.59;;;13.96;78.55
72558;BME280;60583;50.094;8.748;2022-11-15T13:30:40;99754.59;;;13.91;78.72
72558;BME280;60583;50.094;8.748;2022-11-15T13:33:19;99746.44;;;13.86;78.87
72558;BME280;60583;50.094;8.748;2022-11-15T13:35:48;99737.56;;;13.86;79.21
72558;BME280;60583;50.094;8.748;2022-11-15T13:38:25;99729.19;;;13.94;79.53
72558;BME280;60583;50.094;8.748;2022-11-15T13:40:54;99732.91;;;13.93;79.22
72558;BME280;60583;50.094;8.748;2022-11-15T13:48:37;99721.25;;;13.99;78.96
72558;BME280;60583;50.094;8.748;2022-11-15T13:51:17;99710.16;;;13.95;79.38
72558;BME280;60583;50.094;8.748;2022-11-15T13:53:48;99715.41;;;13.90;79.10
72558;BME280;60583;50.094;8.748;2022-11-15T13:56:16;99710.53;;;13.87;79.19
72558;BME280;60583;50.094;8.748;2022-11-15T13:58:44;99706.13;;;13.81;79.64
72558;BME280;60583;50.094;8.748;2022-11-15T14:01:15;99710.41;;;13.82;79.74
72558;BME280;60583;50.094;8.748;2022-11-15T14:03:57;99708.34;;;13.84;79.51
72558;BME280;60583;50.094;8.748;2022-11-15T14:06:25;99701.34;;;13.83;79.57
72558;BME280;60583;50.094;8.748;2022-11-15T14:11:35;99696.09;;;13.88;79.68
72558;BME280;60583;50.094;8.748;2022-11-15T14:16:37;99681.03;;;13.87;79.61
72558;BME280;60583;50.094;8.748;2022-11-15T14:19:03;99682.09;;;13.86;79.97
72558;BME280;60583;50.094;8.748;2022-11-15T14:21:30;99681.03;;;13.87;80.15
72558;BME280;60583;50.094;8.748;2022-11-15T14:24:15;99680.00;;;13.88;80.47
72558;BME280;60583;50.094;8.748;2022-11-15T14:26:41;99683.97;;;13.86;80.65
72558;BME280;60583;50.094;8.748;2022-11-15T14:29:27;99679.44;;;13.86;80.33
72558;BME280;60583;50.094;8.748;2022-11-15T14:31:54;99667.53;;;13.82;80.75
72558;BME280;60583;50.094;8.748;2022-11-15T14:34:31;99670.00;;;13.84;80.31
72558;BME280;60583;50.094;8.748;2022-11-15T14:36:57;99651.72;;;13.81;80.36
72558;BME280;60583;50.094;8.748;2022-11-15T14:39:23;99656.34;;;13.85;80.40
72558;BME280;60583;50.094;8.748;2022-11-15T14:41:50;99659.84;;;13.86;80.86
72558;BME280;60583;50.094;8.748;2022-11-15T14:44:16;99649.38;;;13.84;80.38